Time;durP1;ratioP1;P1;durP2;ratioP2;P2;SDS_P1;SDS_P2;PMS_P1;PMS_P2;Temp;Humidity;BMP_temperature;BMP_pressure;BME280_temperature;BME280_humidity;BME280_pressure;Samples;Min_cycle;Max_cycle;Signal;HPM_P1;HPM_P2
2021/06/21 00:01:24;;;;;;;8.10;4.47;;;;;;;;;;5069479;28;20722;-70
2021/06/21 00:03:49;;;;;;;10.98;6.18;;;;;;;;;;5072547;28;20211;-73
2021/06/21 00:06:15;;;;;;;5.95;4.63;;;;;;;;;;5064357;28;20185;-70
2021/06/21 00:08:40;;;;;;;6.55;4.93;;;;;;;;;;5065095;28;20235;-70
2021/06/21 00:11:06;;;;;;;6.85;4.95;;;;;;;;;;5067319;28;20200;-70
2021/06/21 00:13:31;;;;;;;7.63;5.00;;;;;;;;;;5065486;28;20291;-69
2021/06/21 00:15:56;;;;;;;7.35;4.28;;;;;;;;;;5075087;28;20298;-72
2021/06/21 00:18:23;;;;;;;6.90;4.85;;;;;;;;;;5065773;28;20174;-71
2021/06/21 00:20:49;;;;;;;4.63;4.05;;;;;;;;;;5057843;28;20179;-71
2021/06/21 00:23:14;;;;;;;7.53;5.00;;;;;;;;;;5063831;28;20173;-73
2021/06/21 00:25:39;;;;;;;10.07;4.78;;;;;;;;;;5061721;28;20187;-69
2021/06/21 00:28:05;;;;;;;6.00;4.55;;;;;;;;;;5060086;28;20177;-69
2021/06/21 00:30:30;;;;;;;7.63;5.20;;;;;;;;;;5056257;28;20270;-72
2021/06/21 00:32:55;;;;;;;5.25;4.68;;;;;;;;;;5067209;28;20268;-70
2021/06/21 00:35:21;;;;;;;17.05;5.85;;;;;;;;;;5058015;28;20205;-70
2021/06/21 00:37:46;;;;;;;6.70;5.40;;;;;;;;;;5062410;28;20227;-71
2021/06/21 00:40:12;;;;;;;8.27;4.97;;;;;;;;;;5057809;28;20185;-71
2021/06/21 00:42:39;;;;;;;7.78;5.75;;;;;;;;;;5058779;28;20603;-70
2021/06/21 00:45:05;;;;;;;7.07;5.22;;;;;;;;;;5048548;28;20211;-71
2021/06/21 00:47:30;;;;;;;8.43;5.18;;;;;;;;;;5053228;28;20184;-71
2021/06/21 00:49:55;;;;;;;7.57;5.63;;;;;;;;;;5053342;28;20266;-70
2021/06/21 00:52:21;;;;;;;7.75;5.50;;;;;;;;;;5052377;28;20663;-70
2021/06/21 00:54:47;;;;;;;7.38;5.47;;;;;;;;;;5052334;28;20208;-69
2021/06/21 00:57:13;;;;;;;8.52;6.18;;;;;;;;;;5052443;28;20169;-71
2021/06/21 00:59:38;;;;;;;7.88;5.50;;;;;;;;;;5056474;28;20635;-71
2021/06/21 01:02:03;;;;;;;9.68;6.20;;;;;;;;;;5052072;28;20178;-70
2021/06/21 01:04:28;;;;;;;6.90;5.35;;;;;;;;;;5058458;28;20204;-72
2021/06/21 01:06:54;;;;;;;7.15;5.45;;;;;;;;;;5053689;28;20402;-73
2021/06/21 01:09:19;;;;;;;7.05;5.70;;;;;;;;;;5052492;28;20178;-71
2021/06/21 01:12:00;;;;;;;11.95;6.28;;;;;;;;;;5061201;28;20228;-69
2021/06/21 01:14:25;;;;;;;7.72;6.07;;;;;;;;;;5055847;28;20201;-70
2021/06/21 01:16:55;;;;;;;7.87;6.40;;;;;;;;;;5051349;28;20618;-69
2021/06/21 01:19:40;;;;;;;10.77;6.47;;;;;;;;;;5051947;28;21132;-72
2021/06/21 01:22:08;;;;;;;9.50;6.85;;;;;;;;;;5049643;28;20682;-70
2021/06/21 01:24:53;;;;;;;9.38;7.00;;;;;;;;;;5054119;28;20219;-72
2021/06/21 01:27:31;;;;;;;10.18;7.07;;;;;;;;;;5056038;28;20177;-69
2021/06/21 01:30:09;;;;;;;12.55;6.80;;;;;;;;;;5055024;28;20177;-70
2021/06/21 01:32:43;;;;;;;8.57;6.20;;;;;;;;;;5055473;28;20259;-71
2021/06/21 01:35:11;;;;;;;8.63;6.50;;;;;;;;;;5055683;28;20204;-70
2021/06/21 01:37:36;;;;;;;9.60;6.65;;;;;;;;;;5052007;28;20264;-72
2021/06/21 01:40:05;;;;;;;11.18;7.57;;;;;;;;;;5054453;28;20271;-70
2021/06/21 01:42:31;;;;;;;12.05;6.85;;;;;;;;;;5053752;28;20690;-71
2021/06/21 01:45:01;;;;;;;10.75;6.43;;;;;;;;;;5052644;28;20212;-72
2021/06/21 01:47:27;;;;;;;9.98;7.30;;;;;;;;;;5053377;28;20200;-71
2021/06/21 01:49:52;;;;;;;8.55;6.55;;;;;;;;;;5047756;28;20177;-69
2021/06/21 01:52:19;;;;;;;10.45;7.32;;;;;;;;;;5049988;28;20181;-71
2021/06/21 01:54:47;;;;;;;12.65;7.80;;;;;;;;;;5050999;28;20209;-72
2021/06/21 01:57:13;;;;;;;8.98;7.55;;;;;;;;;;5056253;28;20180;-70
2021/06/21 01:59:39;;;;;;;11.15;7.55;;;;;;;;;;5054087;28;20554;-74
2021/06/21 02:02:04;;;;;;;10.60;7.07;;;;;;;;;;5050820;28;20197;-72
2021/06/21 02:04:32;;;;;;;8.25;7.30;;;;;;;;;;5052364;28;20191;-74
2021/06/21 02:06:59;;;;;;;12.98;8.63;;;;;;;;;;5049575;28;20553;-72
2021/06/21 02:09:25;;;;;;;10.55;7.53;;;;;;;;;;5057846;28;20337;-75
2021/06/21 02:11:52;;;;;;;12.25;8.05;;;;;;;;;;5051200;28;20631;-76
2021/06/21 02:14:19;;;;;;;11.40;8.13;;;;;;;;;;5053854;28;20209;-73
2021/06/21 02:16:44;;;;;;;9.55;7.45;;;;;;;;;;5050303;28;20218;-76
2021/06/21 02:19:09;;;;;;;10.18;7.18;;;;;;;;;;5054337;28;20268;-76
2021/06/21 02:21:34;;;;;;;13.82;8.43;;;;;;;;;;5057419;28;20785;-76
2021/06/21 02:24:00;;;;;;;11.05;7.93;;;;;;;;;;5053418;28;20218;-76
2021/06/21 02:26:25;;;;;;;12.88;8.13;;;;;;;;;;5067772;28;20193;-71
2021/06/21 02:28:58;;;;;;;10.98;7.97;;;;;;;;;;5079304;28;20196;-73
2021/06/21 02:31:23;;;;;;;10.55;8.35;;;;;;;;;;5080168;28;20653;-74
2021/06/21 02:33:48;;;;;;;12.65;7.95;;;;;;;;;;5080826;28;20221;-74
2021/06/21 02:36:13;;;;;;;15.07;8.75;;;;;;;;;;5083405;28;20262;-74
2021/06/21 02:38:39;;;;;;;11.10;8.32;;;;;;;;;;5079313;28;20189;-74
2021/06/21 02:41:04;;;;;;;10.60;7.82;;;;;;;;;;5080364;28;20816;-73
2021/06/21 02:43:30;;;;;;;10.90;7.03;;;;;;;;;;5083562;28;20208;-73
2021/06/21 02:45:55;;;;;;;12.32;7.75;;;;;;;;;;5079972;28;20189;-74
2021/06/21 02:48:20;;;;;;;12.77;8.65;;;;;;;;;;5080079;28;20185;-74
2021/06/21 02:50:46;;;;;;;12.40;7.32;;;;;;;;;;5087451;28;20169;-72
2021/06/21 02:53:24;;;;;;;12.57;8.27;;;;;;;;;;5066382;28;20210;-74
2021/06/21 02:55:52;;;;;;;13.20;7.75;;;;;;;;;;5055742;28;20181;-74
2021/06/21 02:58:19;;;;;;;14.20;8.02;;;;;;;;;;5061650;28;21167;-74
2021/06/21 03:00:45;;;;;;;11.70;8.13;;;;;;;;;;5059481;28;20193;-74
2021/06/21 03:03:10;;;;;;;11.98;7.65;;;;;;;;;;5056367;28;20180;-74
2021/06/21 03:05:39;;;;;;;11.73;7.25;;;;;;;;;;5062903;28;20179;-75
2021/06/21 03:08:05;;;;;;;9.63;7.20;;;;;;;;;;5056471;28;20201;-74
2021/06/21 03:10:31;;;;;;;9.32;6.10;;;;;;;;;;5055371;28;20729;-73
2021/06/21 03:12:56;;;;;;;8.88;6.70;;;;;;;;;;5055703;28;20182;-73
2021/06/21 03:15:24;;;;;;;10.82;6.82;;;;;;;;;;5054392;28;20240;-73
2021/06/21 03:17:50;;;;;;;9.50;6.60;;;;;;;;;;5053721;28;20266;-75
2021/06/21 03:20:17;;;;;;;10.25;6.13;;;;;;;;;;5056046;28;21302;-76
2021/06/21 03:22:44;;;;;;;11.48;6.65;;;;;;;;;;5061781;28;20514;-74
2021/06/21 03:25:09;;;;;;;9.80;7.20;;;;;;;;;;5060460;28;20197;-73
2021/06/21 03:27:35;;;;;;;8.18;6.32;;;;;;;;;;5058456;28;20181;-75
2021/06/21 03:30:05;;;;;;;9.00;6.47;;;;;;;;;;5073661;28;20726;-75
2021/06/21 03:32:35;;;;;;;7.97;6.57;;;;;;;;;;5067588;28;21027;-74
2021/06/21 03:35:00;;;;;;;7.88;5.80;;;;;;;;;;5056822;28;20208;-75
2021/06/21 03:37:26;;;;;;;9.85;6.10;;;;;;;;;;5056775;28;20196;-75
2021/06/21 03:39:52;;;;;;;11.93;6.40;;;;;;;;;;5057827;28;20192;-75
2021/06/21 03:42:17;;;;;;;9.65;6.43;;;;;;;;;;5060034;28;20542;-74
2021/06/21 03:44:42;;;;;;;11.93;6.88;;;;;;;;;;5056370;28;20201;-75
2021/06/21 03:47:09;;;;;;;7.40;6.10;;;;;;;;;;5059089;28;20192;-74
2021/06/21 03:49:34;;;;;;;7.63;6.25;;;;;;;;;;5059820;28;20675;-74
2021/06/21 03:51:59;;;;;;;10.25;6.47;;;;;;;;;;5054747;28;20266;-75
2021/06/21 03:54:24;;;;;;;11.52;7.97;;;;;;;;;;5056215;28;20652;-75
2021/06/21 03:56:50;;;;;;;7.85;5.82;;;;;;;;;;5055111;28;20282;-74
2021/06/21 03:59:15;;;;;;;8.77;6.35;;;;;;;;;;5052787;28;20178;-73
2021/06/21 04:01:40;;;;;;;10.07;6.50;;;;;;;;;;5056293;28;20188;-74
2021/06/21 04:04:06;;;;;;;8.98;5.95;;;;;;;;;;5053640;28;20204;-77
2021/06/21 04:06:31;;;;;;;7.05;6.32;;;;;;;;;;5057427;28;22300;-74
2021/06/21 04:08:57;;;;;;;7.60;6.10;;;;;;;;;;5058238;28;20185;-75
2021/06/21 04:11:23;;;;;;;9.77;6.68;;;;;;;;;;5053116;28;20181;-74
2021/06/21 04:13:48;;;;;;;7.70;6.07;;;;;;;;;;5054475;28;20221;-74
2021/06/21 04:16:13;;;;;;;9.30;6.47;;;;;;;;;;5058572;28;20559;-74
2021/06/21 04:18:38;;;;;;;8.20;5.78;;;;;;;;;;5052501;28;20290;-75
2021/06/21 04:21:03;;;;;;;7.50;6.13;;;;;;;;;;5053943;28;20184;-74
2021/06/21 04:23:29;;;;;;;9.50;6.07;;;;;;;;;;5055264;28;20204;-75
2021/06/21 04:25:54;;;;;;;10.30;7.23;;;;;;;;;;5061018;28;20738;-74
2021/06/21 04:28:19;;;;;;;8.38;5.95;;;;;;;;;;5055090;28;20179;-74
2021/06/21 04:30:47;;;;;;;12.25;6.45;;;;;;;;;;5054274;28;20192;-74
2021/06/21 04:33:12;;;;;;;9.52;6.22;;;;;;;;;;5052114;28;20208;-75
2021/06/21 04:35:37;;;;;;;7.80;6.22;;;;;;;;;;5054950;28;20310;-74
2021/06/21 04:38:02;;;;;;;7.68;6.30;;;;;;;;;;5052106;28;20172;-74
2021/06/21 04:40:29;;;;;;;11.00;7.72;;;;;;;;;;5054504;28;20267;-73
2021/06/21 04:42:54;;;;;;;7.22;6.10;;;;;;;;;;5057179;28;20276;-74
2021/06/21 04:45:20;;;;;;;10.07;6.50;;;;;;;;;;5058229;28;20304;-73
2021/06/21 04:47:45;;;;;;;11.93;7.13;;;;;;;;;;5054097;28;20328;-76
2021/06/21 04:50:13;;;;;;;8.90;6.47;;;;;;;;;;5059999;28;20674;-76
2021/06/21 04:52:39;;;;;;;10.57;8.07;;;;;;;;;;5053079;28;20563;-76
2021/06/21 04:55:05;;;;;;;9.75;6.97;;;;;;;;;;5058603;28;20236;-75
2021/06/21 04:57:31;;;;;;;10.83;7.20;;;;;;;;;;5054273;28;20199;-77
2021/06/21 04:59:56;;;;;;;9.17;7.50;;;;;;;;;;5054116;28;20872;-77
2021/06/21 05:02:21;;;;;;;8.20;6.38;;;;;;;;;;5051625;28;20180;-77
2021/06/21 05:04:46;;;;;;;8.85;6.20;;;;;;;;;;5054827;28;20201;-73
2021/06/21 05:07:12;;;;;;;10.10;7.05;;;;;;;;;;5054945;28;20607;-74
2021/06/21 05:09:37;;;;;;;8.20;6.43;;;;;;;;;;5059221;28;20180;-74
2021/06/21 05:12:02;;;;;;;8.15;5.72;;;;;;;;;;5055312;28;20730;-73
2021/06/21 05:14:28;;;;;;;10.02;6.03;;;;;;;;;;5055143;28;20693;-76
2021/06/21 05:16:53;;;;;;;8.85;6.45;;;;;;;;;;5053593;28;22429;-76
2021/06/21 05:19:18;;;;;;;7.50;6.00;;;;;;;;;;5060185;28;20672;-75
2021/06/21 05:21:43;;;;;;;7.35;6.57;;;;;;;;;;5061221;28;20178;-75
2021/06/21 05:24:09;;;;;;;12.40;6.97;;;;;;;;;;5055492;28;20201;-75
2021/06/21 05:26:34;;;;;;;9.50;6.80;;;;;;;;;;5054445;28;20187;-75
2021/06/21 05:28:59;;;;;;;8.00;6.75;;;;;;;;;;5053266;28;20221;-75
2021/06/21 05:31:24;;;;;;;7.80;5.95;;;;;;;;;;5059681;28;20178;-75
2021/06/21 05:33:50;;;;;;;9.55;6.47;;;;;;;;;;5064059;28;20205;-76
2021/06/21 05:36:15;;;;;;;7.78;6.03;;;;;;;;;;5048440;28;20173;-75
2021/06/21 05:38:40;;;;;;;8.10;6.10;;;;;;;;;;5052781;28;20277;-75
2021/06/21 05:41:05;;;;;;;8.60;6.20;;;;;;;;;;5053887;28;20185;-74
2021/06/21 05:43:31;;;;;;;9.55;5.93;;;;;;;;;;5053615;28;20201;-74
2021/06/21 05:45:56;;;;;;;6.35;5.70;;;;;;;;;;5060985;28;20194;-75
2021/06/21 05:48:21;;;;;;;9.23;7.13;;;;;;;;;;5055753;28;20268;-74
2021/06/21 05:50:47;;;;;;;7.50;5.65;;;;;;;;;;5060372;28;20671;-74
2021/06/21 05:53:12;;;;;;;6.95;5.43;;;;;;;;;;5052388;28;20237;-75
2021/06/21 05:55:38;;;;;;;7.53;5.25;;;;;;;;;;5059484;28;20587;-75
2021/06/21 05:58:03;;;;;;;10.00;7.07;;;;;;;;;;5054558;28;20169;-75
2021/06/21 06:00:28;;;;;;;5.53;4.75;;;;;;;;;;5054526;28;20431;-75
2021/06/21 06:02:53;;;;;;;7.97;5.07;;;;;;;;;;5055565;28;20177;-75
2021/06/21 06:05:19;;;;;;;6.32;5.03;;;;;;;;;;5054526;28;20239;-74
2021/06/21 06:07:45;;;;;;;7.73;5.03;;;;;;;;;;5058510;28;20177;-76
2021/06/21 06:10:11;;;;;;;6.70;4.88;;;;;;;;;;5056202;28;20204;-74
2021/06/21 06:12:36;;;;;;;6.15;4.90;;;;;;;;;;5050893;28;20272;-74
2021/06/21 06:15:02;;;;;;;7.05;5.07;;;;;;;;;;5052859;28;20227;-75
2021/06/21 06:17:27;;;;;;;6.35;4.72;;;;;;;;;;5054151;28;20188;-75
2021/06/21 06:19:52;;;;;;;5.45;4.45;;;;;;;;;;5056644;28;20215;-75
2021/06/21 06:22:17;;;;;;;4.95;4.53;;;;;;;;;;5054990;28;20207;-75
2021/06/21 06:24:42;;;;;;;5.72;4.55;;;;;;;;;;5056874;28;20208;-74
2021/06/21 06:27:08;;;;;;;4.60;4.00;;;;;;;;;;5054548;28;20648;-74
2021/06/21 06:29:33;;;;;;;4.40;4.00;;;;;;;;;;5058129;28;20554;-75
2021/06/21 06:32:00;;;;;;;6.10;4.05;;;;;;;;;;5059320;28;20267;-75
2021/06/21 06:34:25;;;;;;;7.50;3.33;;;;;;;;;;5052981;28;20682;-76
2021/06/21 06:36:51;;;;;;;4.90;3.40;;;;;;;;;;5053939;28;20836;-75
2021/06/21 06:39:16;;;;;;;5.50;3.10;;;;;;;;;;5057473;28;20290;-77
2021/06/21 06:41:41;;;;;;;3.67;2.65;;;;;;;;;;5059716;28;20276;-76
2021/06/21 06:44:07;;;;;;;4.82;3.33;;;;;;;;;;5055969;28;20214;-76
2021/06/21 06:46:32;;;;;;;3.95;3.00;;;;;;;;;;5062552;28;20661;-77
2021/06/21 06:48:57;;;;;;;7.45;3.58;;;;;;;;;;5054998;28;20235;-77
2021/06/21 06:51:23;;;;;;;3.88;3.30;;;;;;;;;;5052776;28;20528;-76
2021/06/21 06:54:01;;;;;;;3.55;2.83;;;;;;;;;;5056111;28;20201;-77
2021/06/21 06:59:10;;;;;;;3.75;3.05;;;;;;;;;;5057322;28;20191;-77
2021/06/21 07:01:36;;;;;;;3.28;2.67;;;;;;;;;;5057863;28;20570;-73
2021/06/21 07:04:02;;;;;;;5.55;3.53;;;;;;;;;;5056353;28;20208;-74
2021/06/21 07:06:28;;;;;;;3.75;2.90;;;;;;;;;;5057642;28;20654;-74
2021/06/21 07:08:53;;;;;;;5.40;3.78;;;;;;;;;;5057574;28;20186;-74
2021/06/21 07:11:19;;;;;;;5.05;2.97;;;;;;;;;;5081975;28;20169;-74
2021/06/21 07:13:44;;;;;;;4.80;3.30;;;;;;;;;;5080921;28;20193;-75
2021/06/21 07:16:09;;;;;;;4.60;3.92;;;;;;;;;;5084391;28;20174;-74
2021/06/21 07:18:34;;;;;;;4.28;3.50;;;;;;;;;;5087195;28;20202;-74
2021/06/21 07:21:00;;;;;;;4.68;3.28;;;;;;;;;;5086525;28;20195;-74
2021/06/21 07:23:25;;;;;;;4.20;3.80;;;;;;;;;;5081057;28;20185;-74
2021/06/21 07:25:50;;;;;;;5.93;3.70;;;;;;;;;;5088775;28;20252;-74
2021/06/21 07:28:16;;;;;;;4.90;3.38;;;;;;;;;;5083567;28;20178;-74
2021/06/21 07:30:45;;;;;;;4.78;3.70;;;;;;;;;;5087332;28;20175;-75
2021/06/21 07:33:10;;;;;;;4.55;3.80;;;;;;;;;;5095506;28;20181;-75
2021/06/21 07:35:36;;;;;;;4.78;3.70;;;;;;;;;;5099637;28;20208;-74
2021/06/21 07:38:01;;;;;;;4.30;3.33;;;;;;;;;;5093731;28;20191;-74
2021/06/21 07:40:26;;;;;;;4.95;3.42;;;;;;;;;;5084728;28;20185;-74
2021/06/21 07:42:52;;;;;;;5.90;3.42;;;;;;;;;;5057898;28;20218;-75
2021/06/21 07:45:17;;;;;;;3.72;3.17;;;;;;;;;;5055359;28;20208;-75
2021/06/21 07:47:42;;;;;;;6.15;3.50;;;;;;;;;;5058810;28;20191;-74
2021/06/21 07:50:07;;;;;;;4.70;3.15;;;;;;;;;;5076802;28;20232;-75
2021/06/21 07:52:33;;;;;;;4.70;3.20;;;;;;;;;;5081756;28;20173;-75
2021/06/21 07:55:01;;;;;;;4.20;3.17;;;;;;;;;;5076672;28;20198;-76
2021/06/21 07:57:27;;;;;;;3.80;3.50;;;;;;;;;;5069806;28;20591;-75
2021/06/21 07:59:53;;;;;;;3.80;3.08;;;;;;;;;;5054524;28;20169;-76
2021/06/21 08:02:18;;;;;;;3.78;3.47;;;;;;;;;;5056723;28;20957;-76
2021/06/21 08:04:47;;;;;;;4.05;3.53;;;;;;;;;;5058180;28;20689;-76
2021/06/21 08:07:12;;;;;;;4.68;3.70;;;;;;;;;;5052390;28;20185;-76
2021/06/21 08:09:38;;;;;;;3.85;3.33;;;;;;;;;;5059248;28;20172;-75
2021/06/21 08:12:03;;;;;;;3.70;3.03;;;;;;;;;;5055535;28;20916;-75
2021/06/21 08:14:29;;;;;;;7.55;3.85;;;;;;;;;;5054235;28;20227;-76
2021/06/21 08:16:54;;;;;;;4.93;3.30;;;;;;;;;;5055155;28;20184;-75
2021/06/21 08:19:19;;;;;;;6.65;3.42;;;;;;;;;;5057382;28;20904;-76
2021/06/21 08:21:44;;;;;;;4.65;3.22;;;;;;;;;;5054142;28;20170;-76
2021/06/21 08:24:11;;;;;;;4.00;2.60;;;;;;;;;;5053021;28;20759;-76
2021/06/21 08:26:36;;;;;;;4.38;2.90;;;;;;;;;;5059606;28;20185;-76
2021/06/21 08:29:02;;;;;;;3.78;2.90;;;;;;;;;;5049308;28;20643;-76
2021/06/21 08:31:27;;;;;;;3.20;2.88;;;;;;;;;;5059613;28;20267;-75
2021/06/21 08:33:53;;;;;;;4.28;3.45;;;;;;;;;;5059216;28;20301;-76
2021/06/21 08:36:18;;;;;;;7.00;3.45;;;;;;;;;;5053450;28;20185;-75
2021/06/21 08:38:44;;;;;;;3.97;3.50;;;;;;;;;;5053071;28;20587;-75
2021/06/21 08:41:11;;;;;;;5.47;3.28;;;;;;;;;;5062576;28;20184;-75
2021/06/21 08:43:37;;;;;;;5.38;3.53;;;;;;;;;;5052497;28;20250;-76
2021/06/21 08:46:02;;;;;;;4.85;3.42;;;;;;;;;;5055453;28;20911;-76
2021/06/21 08:48:31;;;;;;;4.85;3.67;;;;;;;;;;5052394;28;20190;-76
2021/06/21 08:51:00;;;;;;;5.25;3.63;;;;;;;;;;5054156;28;20577;-75
2021/06/21 08:53:25;;;;;;;4.32;3.80;;;;;;;;;;5051346;28;20195;-76
2021/06/21 08:55:51;;;;;;;5.43;3.83;;;;;;;;;;5060079;28;20170;-75
2021/06/21 08:58:16;;;;;;;4.45;3.28;;;;;;;;;;5053382;28;20184;-75
2021/06/21 09:00:41;;;;;;;3.85;2.90;;;;;;;;;;5056286;28;20657;-75
2021/06/21 09:03:07;;;;;;;4.00;3.30;;;;;;;;;;5055085;28;20178;-76
2021/06/21 09:05:34;;;;;;;3.50;2.53;;;;;;;;;;5057606;28;20383;-75
2021/06/21 09:08:06;;;;;;;5.28;2.50;;;;;;;;;;5057815;28;20177;-76
2021/06/21 09:10:32;;;;;;;4.13;2.70;;;;;;;;;;5052092;28;20181;-77
2021/06/21 09:13:05;;;;;;;6.05;2.97;;;;;;;;;;5053101;28;20273;-75
2021/06/21 09:15:34;;;;;;;3.33;2.53;;;;;;;;;;5055613;28;20682;-76
2021/06/21 09:18:00;;;;;;;4.97;2.55;;;;;;;;;;5054172;28;20333;-76
2021/06/21 09:20:26;;;;;;;3.38;2.10;;;;;;;;;;5052104;28;20199;-75
2021/06/21 09:22:53;;;;;;;4.40;2.50;;;;;;;;;;5051557;28;20242;-76
2021/06/21 09:25:19;;;;;;;2.75;2.03;;;;;;;;;;5052689;28;20279;-76
2021/06/21 09:27:54;;;;;;;3.28;2.50;;;;;;;;;;5060474;28;20284;-75
2021/06/21 09:30:20;;;;;;;2.42;2.05;;;;;;;;;;5054817;28;20187;-74
2021/06/21 09:32:49;;;;;;;2.20;2.00;;;;;;;;;;5055318;28;20185;-74
2021/06/21 09:35:30;;;;;;;2.50;2.30;;;;;;;;;;5057398;28;20208;-75
2021/06/21 09:37:57;;;;;;;3.00;2.30;;;;;;;;;;5054421;28;20173;-75
2021/06/21 09:40:25;;;;;;;4.25;2.00;;;;;;;;;;5050710;28;20189;-74
2021/06/21 09:42:50;;;;;;;4.70;2.38;;;;;;;;;;5052011;28;20317;-75
2021/06/21 09:45:16;;;;;;;2.17;1.83;;;;;;;;;;5055710;28;20284;-74
2021/06/21 09:47:41;;;;;;;2.95;2.50;;;;;;;;;;5051781;28;20193;-76
2021/06/21 09:50:21;;;;;;;2.90;2.15;;;;;;;;;;5049817;28;20185;-75
2021/06/21 09:52:48;;;;;;;3.50;1.63;;;;;;;;;;5050858;28;20240;-75
2021/06/21 09:55:26;;;;;;;2.28;2.08;;;;;;;;;;5051266;28;20463;-75
2021/06/21 09:58:00;;;;;;;2.28;1.80;;;;;;;;;;5050958;28;20208;-76
2021/06/21 10:00:26;;;;;;;2.45;1.85;;;;;;;;;;5062134;28;20179;-75
2021/06/21 10:03:04;;;;;;;2.63;1.90;;;;;;;;;;5065245;28;20268;-76
2021/06/21 10:05:29;;;;;;;4.80;2.00;;;;;;;;;;5056352;28;20238;-74
2021/06/21 10:07:56;;;;;;;3.00;2.13;;;;;;;;;;5062241;28;20180;-75
2021/06/21 10:10:22;;;;;;;2.55;1.85;;;;;;;;;;5053114;28;20185;-75
2021/06/21 10:12:47;;;;;;;4.60;1.95;;;;;;;;;;5065371;28;20184;-75
2021/06/21 10:15:13;;;;;;;3.67;2.33;;;;;;;;;;5059517;28;20203;-74
2021/06/21 10:17:39;;;;;;;4.45;2.28;;;;;;;;;;5063686;28;20192;-74
2021/06/21 10:20:05;;;;;;;2.05;1.80;;;;;;;;;;5063992;28;20263;-74
2021/06/21 10:22:30;;;;;;;2.67;2.20;;;;;;;;;;5057108;28;20275;-75
2021/06/21 10:24:56;;;;;;;4.75;2.45;;;;;;;;;;5060468;28;20288;-74
2021/06/21 10:27:22;;;;;;;2.78;1.90;;;;;;;;;;5059949;28;20618;-75
2021/06/21 10:29:48;;;;;;;3.28;1.92;;;;;;;;;;5057450;28;20773;-76
2021/06/21 10:32:14;;;;;;;2.22;1.83;;;;;;;;;;5058141;28;20185;-75
2021/06/21 10:34:40;;;;;;;3.25;2.20;;;;;;;;;;5066465;28;20207;-74
2021/06/21 10:37:20;;;;;;;3.38;2.00;;;;;;;;;;5060136;28;20181;-74
2021/06/21 10:39:47;;;;;;;3.65;2.03;;;;;;;;;;5059228;28;20561;-74
2021/06/21 10:42:12;;;;;;;2.53;1.90;;;;;;;;;;5060873;28;20192;-73
2021/06/21 10:44:41;;;;;;;2.80;2.22;;;;;;;;;;5056504;28;20201;-73
2021/06/21 10:47:22;;;;;;;2.88;1.60;;;;;;;;;;5063626;28;20181;-74
2021/06/21 10:49:53;;;;;;;2.92;1.85;;;;;;;;;;5066996;28;20185;-73
2021/06/21 10:52:39;;;;;;;3.53;2.05;;;;;;;;;;5061201;28;20169;-74
2021/06/21 10:55:23;;;;;;;2.55;2.10;;;;;;;;;;5064909;28;20246;-74
2021/06/21 10:57:52;;;;;;;2.20;1.60;;;;;;;;;;5057866;28;20176;-74
2021/06/21 11:00:18;;;;;;;2.58;1.85;;;;;;;;;;5058053;28;20182;-74
2021/06/21 11:02:44;;;;;;;3.03;2.05;;;;;;;;;;5058937;28;20479;-74
2021/06/21 11:05:09;;;;;;;3.05;2.40;;;;;;;;;;5056543;28;20284;-74
2021/06/21 11:07:35;;;;;;;3.65;1.92;;;;;;;;;;5058959;28;20209;-75
2021/06/21 11:10:02;;;;;;;2.40;2.05;;;;;;;;;;5061418;28;20207;-76
2021/06/21 11:12:30;;;;;;;2.33;1.73;;;;;;;;;;5062351;28;20176;-76
2021/06/21 11:15:01;;;;;;;2.50;1.80;;;;;;;;;;5061734;28;20244;-75
2021/06/21 11:17:26;;;;;;;6.07;2.67;;;;;;;;;;5056951;28;20173;-75
2021/06/21 11:19:51;;;;;;;2.55;1.80;;;;;;;;;;5056158;28;20197;-76
2021/06/21 11:22:37;;;;;;;2.03;1.63;;;;;;;;;;5060334;28;20184;-75
2021/06/21 11:25:02;;;;;;;1.42;1.30;;;;;;;;;;5056213;28;20262;-76
2021/06/21 11:27:39;;;;;;;1.77;1.30;;;;;;;;;;5054964;28;20190;-76
2021/06/21 11:30:19;;;;;;;3.65;1.70;;;;;;;;;;5057209;28;20201;-77
2021/06/21 11:33:01;;;;;;;5.70;1.98;;;;;;;;;;5054196;28;20169;-74
2021/06/21 11:35:45;;;;;;;1.50;1.40;;;;;;;;;;5059501;28;20204;-77
2021/06/21 11:38:23;;;;;;;2.90;1.63;;;;;;;;;;5055243;28;20219;-74
2021/06/21 11:41:08;;;;;;;1.42;1.20;;;;;;;;;;5057010;28;20195;-74
2021/06/21 11:43:45;;;;;;;1.77;1.20;;;;;;;;;;5055785;28;20200;-74
2021/06/21 11:46:10;;;;;;;2.30;1.80;;;;;;;;;;5058806;28;20204;-74
2021/06/21 11:48:38;;;;;;;2.05;1.40;;;;;;;;;;5050831;28;20193;-73
2021/06/21 11:51:14;;;;;;;3.63;1.85;;;;;;;;;;5052901;28;20192;-72
2021/06/21 11:53:43;;;;;;;1.48;1.38;;;;;;;;;;5057150;28;20444;-74
2021/06/21 11:56:11;;;;;;;1.80;1.42;;;;;;;;;;5055462;28;20186;-74
2021/06/21 11:58:36;;;;;;;1.38;1.27;;;;;;;;;;5056301;28;20170;-74
2021/06/21 12:01:14;;;;;;;1.88;1.30;;;;;;;;;;5056074;28;20180;-74
2021/06/21 12:03:43;;;;;;;1.65;1.10;;;;;;;;;;5057290;28;20200;-74
2021/06/21 12:06:13;;;;;;;2.55;1.15;;;;;;;;;;5059073;28;20173;-74
2021/06/21 12:08:38;;;;;;;1.63;1.15;;;;;;;;;;5059056;28;20173;-74
2021/06/21 12:11:10;;;;;;;1.05;0.95;;;;;;;;;;5055790;28;21389;-74
2021/06/21 12:13:35;;;;;;;3.67;1.50;;;;;;;;;;5055211;28;20363;-74
2021/06/21 12:16:00;;;;;;;1.40;1.25;;;;;;;;;;5057706;28;20263;-72
2021/06/21 12:18:26;;;;;;;1.48;1.38;;;;;;;;;;5055594;28;20891;-73
2021/06/21 12:20:51;;;;;;;2.42;1.50;;;;;;;;;;5055453;28;20258;-74
2021/06/21 12:23:17;;;;;;;2.97;1.60;;;;;;;;;;5054124;28;20674;-74
2021/06/21 12:25:46;;;;;;;4.35;1.73;;;;;;;;;;5055352;28;20789;-73
2021/06/21 12:28:14;;;;;;;2.20;1.50;;;;;;;;;;5056135;28;20750;-73
2021/06/21 12:30:41;;;;;;;2.50;1.60;;;;;;;;;;5055216;28;20189;-73
2021/06/21 12:33:39;;;;;;;1.27;1.17;;;;;;;;;;5055043;28;20193;-73
2021/06/21 12:36:05;;;;;;;1.30;1.17;;;;;;;;;;5061983;28;20197;-73
2021/06/21 12:38:31;;;;;;;1.77;1.23;;;;;;;;;;5075724;28;20173;-73
2021/06/21 12:40:56;;;;;;;1.88;1.38;;;;;;;;;;5085865;28;20192;-72
2021/06/21 12:43:21;;;;;;;1.52;1.15;;;;;;;;;;5087755;28;20228;-72
2021/06/21 12:45:46;;;;;;;1.42;1.02;;;;;;;;;;5083479;28;20204;-72
2021/06/21 12:48:11;;;;;;;1.40;1.13;;;;;;;;;;5081953;28;20185;-72
2021/06/21 12:50:37;;;;;;;2.90;1.17;;;;;;;;;;5087657;28;20185;-72
2021/06/21 12:53:06;;;;;;;1.42;1.10;;;;;;;;;;5086838;28;20407;-73
2021/06/21 12:55:32;;;;;;;2.72;1.27;;;;;;;;;;5083210;28;20212;-72
2021/06/21 12:58:01;;;;;;;2.10;1.20;;;;;;;;;;5083557;28;20188;-72
2021/06/21 13:00:41;;;;;;;2.80;1.05;;;;;;;;;;5080764;28;20188;-72
2021/06/21 13:03:07;;;;;;;1.45;1.35;;;;;;;;;;5081185;28;20172;-72
2021/06/21 13:05:39;;;;;;;1.48;1.35;;;;;;;;;;5082068;28;20192;-72
2021/06/21 13:08:04;;;;;;;2.72;1.50;;;;;;;;;;5075722;28;20189;-72
2021/06/21 13:10:30;;;;;;;3.78;1.40;;;;;;;;;;5057521;28;20192;-72
2021/06/21 13:12:55;;;;;;;2.83;1.10;;;;;;;;;;5057582;28;20189;-72
2021/06/21 13:15:20;;;;;;;2.25;1.10;;;;;;;;;;5058903;28;20254;-72
2021/06/21 13:17:50;;;;;;;2.22;1.20;;;;;;;;;;5055090;28;20185;-72
2021/06/21 13:20:16;;;;;;;2.13;1.30;;;;;;;;;;5060214;28;21679;-72
2021/06/21 13:22:53;;;;;;;2.63;1.40;;;;;;;;;;5054130;28;20195;-71
2021/06/21 13:25:21;;;;;;;1.27;1.13;;;;;;;;;;5059458;28;20209;-73
2021/06/21 13:28:01;;;;;;;1.77;1.13;;;;;;;;;;5051845;28;20176;-72
2021/06/21 13:30:34;;;;;;;1.95;1.00;;;;;;;;;;5058050;28;20200;-72
2021/06/21 13:33:03;;;;;;;2.28;1.48;;;;;;;;;;5057658;28;20172;-71
2021/06/21 13:35:28;;;;;;;2.58;1.10;;;;;;;;;;5062373;28;21139;-72
2021/06/21 13:37:53;;;;;;;2.05;1.10;;;;;;;;;;5060414;28;20794;-73
2021/06/21 13:40:23;;;;;;;4.05;1.40;;;;;;;;;;5055831;28;20193;-71
2021/06/21 13:42:53;;;;;;;3.53;1.27;;;;;;;;;;5051384;28;20205;-71
2021/06/21 13:45:22;;;;;;;3.17;1.20;;;;;;;;;;5053040;28;20225;-72
2021/06/21 13:47:53;;;;;;;5.10;1.60;;;;;;;;;;5051099;28;20192;-72
2021/06/21 13:50:18;;;;;;;1.88;1.10;;;;;;;;;;5059323;28;20243;-72
2021/06/21 13:52:47;;;;;;;2.30;1.13;;;;;;;;;;5053734;28;20181;-71
2021/06/21 13:55:14;;;;;;;3.17;1.40;;;;;;;;;;5053059;28;20407;-72
2021/06/21 13:57:49;;;;;;;3.55;1.50;;;;;;;;;;5051141;28;20675;-72
2021/06/21 14:00:31;;;;;;;7.65;2.22;;;;;;;;;;5058137;28;20184;-72
2021/06/21 14:02:56;;;;;;;2.20;1.50;;;;;;;;;;5050558;28;20176;-72
2021/06/21 14:05:22;;;;;;;3.53;1.48;;;;;;;;;;5050279;28;20201;-72
2021/06/21 14:07:48;;;;;;;1.77;1.30;;;;;;;;;;5058921;28;20195;-73
2021/06/21 14:10:14;;;;;;;1.98;1.05;;;;;;;;;;5054207;28;20185;-72
2021/06/21 14:12:39;;;;;;;3.58;1.30;;;;;;;;;;5052189;28;20187;-72
2021/06/21 14:15:05;;;;;;;2.45;1.20;;;;;;;;;;5059610;28;20880;-73
2021/06/21 14:17:31;;;;;;;2.45;1.30;;;;;;;;;;5055457;28;20169;-73
2021/06/21 14:19:58;;;;;;;3.65;1.50;;;;;;;;;;5056988;28;20187;-72
2021/06/21 14:22:23;;;;;;;3.60;1.73;;;;;;;;;;5052826;28;20177;-72
2021/06/21 14:24:48;;;;;;;2.33;1.42;;;;;;;;;;5057004;28;20300;-72
2021/06/21 14:27:13;;;;;;;2.15;1.50;;;;;;;;;;5055257;28;20184;-72
2021/06/21 14:29:39;;;;;;;1.55;1.20;;;;;;;;;;5054229;28;20181;-73
2021/06/21 14:32:05;;;;;;;3.53;1.75;;;;;;;;;;5051222;28;20285;-72
2021/06/21 14:34:30;;;;;;;2.72;1.38;;;;;;;;;;5057466;28;20197;-72
2021/06/21 14:36:55;;;;;;;1.98;1.30;;;;;;;;;;5059765;28;20673;-72
2021/06/21 14:39:21;;;;;;;1.50;1.10;;;;;;;;;;5054454;28;20594;-73
2021/06/21 14:41:46;;;;;;;2.55;1.92;;;;;;;;;;5056814;28;20186;-73
2021/06/21 14:44:11;;;;;;;2.15;1.42;;;;;;;;;;5055728;28;20215;-73